Hlavní strana
METAR-TAF:

METAR-TAF

Letiště :

Mombasa, Keňa

zeměpisná šířka: 04-02S, zeměpisná délka: 039-37E, výška: 57 m

Aktuální stav počasí

Zpráva byla vytvořena před 1 hodinou a 17 minutami, v 18:00 UTC
Jihojihovýchodní vítr 6 kt
Teplota 26°C
Vlhkost vzduchu 89%
Tlak 1013 hPa
Viditelnost 10 km a více
Skoro jasno ve výšce 2400 ft

METAR: HKMO 161800Z 16006KT 9999 FEW024 26/24 Q1013 NOSIG

Čas: 22:17 (19:17 UTC)


TAF: chybějící

Stav a předpovědi počasí z více než 4 000 letišť (zprávy METAR a TAF).

Červené a žluté tečky na mapě představují dostupné meteorologické stanice.

Když kurzor umístíte na tečku, zobrazí se název stanice.

Pak kliknutím zobrazíte stav a předpověď počasí.

Chcete-li změnit mapu, kliknutím na zelené tlačítko se znaménkem +mapu přiblížíte, kliknutím na zelené tlačítko se znaménkem – mapu oddálíte a kliknutím na zelené šipky přejdete na sousední mapy.


METAR-TAF: